Time;durP1;ratioP1;P1;durP2;ratioP2;P2;SDS_P1;SDS_P2;PMS_P1;PMS_P2;Temp;Humidity;BMP_temperature;BMP_pressure;BME280_temperature;BME280_humidity;BME280_pressure;Samples;Min_cycle;Max_cycle;Signal;HPM_P1;HPM_P2
2024/01/02 00:01:32;;;;;;;;;;;;;;;6.54;87.30;100292.53;4211566;28;20019;-69
2024/01/02 00:03:34;;;;;;;;;;;;;;;6.54;87.26;100289.88;4211245;28;20019;-69
2024/01/02 00:05:36;;;;;;;;;;;;;;;6.54;87.06;100284.50;4212176;28;20006;-69
2024/01/02 00:07:39;;;;;;;;;;;;;;;6.53;87.08;100289.00;4213030;28;20023;-69
2024/01/02 00:09:41;;;;;;;;;;;;;;;6.53;87.17;100288.16;4213536;28;20458;-69
2024/01/02 00:11:44;;;;;;;;;;;;;;;6.52;87.32;100287.34;4211930;28;20371;-69
2024/01/02 00:13:46;;;;;;;;;;;;;;;6.52;87.32;100289.16;4211927;28;20026;-69
2024/01/02 00:15:48;;;;;;;;;;;;;;;6.51;87.43;100291.00;4213063;28;19928;-69
2024/01/02 00:17:50;;;;;;;;;;;;;;;6.50;87.56;100281.28;4211015;28;19982;-69
2024/01/02 00:19:52;;;;;;;;;;;;;;;6.50;87.23;100278.59;4213610;28;20014;-69
2024/01/02 00:21:54;;;;;;;;;;;;;;;6.49;87.30;100282.28;4211824;28;20019;-69
2024/01/02 00:23:58;;;;;;;;;;;;;;;6.48;87.51;100276.06;4212503;28;20023;-69
2024/01/02 00:26:00;;;;;;;;;;;;;;;6.46;87.82;100278.09;4213203;28;20003;-69
2024/01/02 00:28:04;;;;;;;;;;;;;;;6.47;87.70;100289.66;4212574;28;20485;-69
2024/01/02 00:30:06;;;;;;;;;;;;;;;6.46;87.53;100272.72;4212097;28;20026;-69
2024/01/02 00:32:09;;;;;;;;;;;;;;;6.47;87.72;100273.53;4211048;28;20018;-69
2024/01/02 00:34:10;;;;;;;;;;;;;;;6.47;87.65;100276.22;4212880;28;20010;-69
2024/01/02 00:36:13;;;;;;;;;;;;;;;6.46;87.56;100278.09;4203961;28;19925;-69
2024/01/02 00:38:15;;;;;;;;;;;;;;;6.46;87.71;100271.88;4210611;28;20036;-69
2024/01/02 00:40:16;;;;;;;;;;;;;;;6.47;87.75;100278.91;4210456;28;20027;-69
2024/01/02 00:42:18;;;;;;;;;;;;;;;6.45;87.65;100272.88;4210289;28;19928;-69
2024/01/02 00:44:21;;;;;;;;;;;;;;;6.43;87.51;100270.34;4211130;28;20460;-69
2024/01/02 00:46:23;;;;;;;;;;;;;;;6.43;87.46;100267.69;4212578;28;20010;-69
2024/01/02 00:48:25;;;;;;;;;;;;;;;6.42;87.40;100262.47;4212158;28;20457;-68
2024/01/02 00:50:26;;;;;;;;;;;;;;;6.41;87.51;100263.47;4219887;28;20019;-69
2024/01/02 00:52:28;;;;;;;;;;;;;;;6.41;87.79;100269.69;4212908;28;19928;-69
2024/01/02 00:54:30;;;;;;;;;;;;;;;6.40;87.60;100259.13;4211997;28;20048;-69
2024/01/02 00:56:32;;;;;;;;;;;;;;;6.40;87.54;100269.84;4213049;28;19928;-69
2024/01/02 00:58:34;;;;;;;;;;;;;;;6.38;87.55;100256.59;4211578;28;20010;-68
2024/01/02 01:00:37;;;;;;;;;;;;;;;6.37;87.32;100256.75;4212047;28;20006;-68
2024/01/02 01:02:39;;;;;;;;;;;;;;;6.32;87.43;100246.50;4211647;28;20362;-69
2024/01/02 01:04:42;;;;;;;;;;;;;;;6.34;87.38;100247.19;4212257;28;20024;-69
2024/01/02 01:06:43;;;;;;;;;;;;;;;6.33;87.11;100242.81;4212473;28;20023;-68
2024/01/02 01:08:45;;;;;;;;;;;;;;;6.31;87.44;100248.34;4210941;28;19924;-69
2024/01/02 01:10:47;;;;;;;;;;;;;;;6.32;87.20;100259.94;4211498;28;19964;-68
2024/01/02 01:12:48;;;;;;;;;;;;;;;6.32;87.16;100266.13;4210935;28;20018;-68
2024/01/02 01:14:50;;;;;;;;;;;;;;;6.31;87.11;100251.00;4211756;28;19928;-68
2024/01/02 01:16:53;;;;;;;;;;;;;;;6.29;87.05;100260.25;4211322;28;19924;-69
2024/01/02 01:18:55;;;;;;;;;;;;;;;6.27;87.04;100252.38;4220001;28;20003;-68
2024/01/02 01:20:57;;;;;;;;;;;;;;;6.25;86.94;100248.16;4211961;28;20576;-68
2024/01/02 01:22:59;;;;;;;;;;;;;;;6.24;87.08;100251.84;4212224;28;20433;-69
2024/01/02 01:25:01;;;;;;;;;;;;;;;6.22;87.14;100243.97;4186136;28;20023;-69
2024/01/02 01:27:03;;;;;;;;;;;;;;;6.18;86.55;100242.59;4212101;28;20014;-68
2024/01/02 01:29:05;;;;;;;;;;;;;;;6.17;86.82;100240.91;4210718;28;20465;-69
2024/01/02 01:31:07;;;;;;;;;;;;;;;6.17;86.88;100240.91;4201756;28;20027;-68
2024/01/02 01:33:11;;;;;;;;;;;;;;;6.16;86.68;100239.25;4209147;28;20007;-69
2024/01/02 01:35:13;;;;;;;;;;;;;;;6.15;86.63;100244.75;4219176;28;20015;-68
2024/01/02 01:37:15;;;;;;;;;;;;;;;6.13;86.49;100245.75;4211613;28;20297;-68
2024/01/02 01:39:16;;;;;;;;;;;;;;;6.10;86.26;100235.34;4218678;28;20427;-69
2024/01/02 01:41:18;;;;;;;;;;;;;;;6.10;86.33;100242.56;4217891;28;19934;-68
2024/01/02 01:43:20;;;;;;;;;;;;;;;6.10;86.12;100245.25;4210978;28;20378;-68
2024/01/02 01:45:22;;;;;;;;;;;;;;;6.07;86.24;100240.19;4211739;28;19995;-69
2024/01/02 01:47:24;;;;;;;;;;;;;;;6.04;86.26;100241.34;4210981;28;20018;-69
2024/01/02 01:49:27;;;;;;;;;;;;;;;6.05;85.96;100244.88;4211789;28;20015;-68
2024/01/02 01:51:28;;;;;;;;;;;;;;;6.01;85.80;100239.00;4212294;28;19966;-68
2024/01/02 01:53:30;;;;;;;;;;;;;;;6.01;85.84;100240.84;4209774;28;19932;-68
2024/01/02 01:55:32;;;;;;;;;;;;;;;5.99;85.99;100237.47;4208057;28;20620;-68
2024/01/02 01:57:34;;;;;;;;;;;;;;;5.95;85.65;100240.41;4200610;28;19927;-68
2024/01/02 01:59:36;;;;;;;;;;;;;;;5.92;85.76;100230.06;4207557;28;20048;-68
2024/01/02 02:01:38;;;;;;;;;;;;;;;5.92;85.77;100238.09;4219522;28;20405;-69
2024/01/02 02:03:40;;;;;;;;;;;;;;;5.89;85.70;100238.41;4207799;28;20011;-68
2024/01/02 02:05:43;;;;;;;;;;;;;;;5.88;85.75;100239.41;4211272;28;20035;-69
2024/01/02 02:07:45;;;;;;;;;;;;;;;5.85;85.50;100237.03;4209623;28;20450;-69
2024/01/02 02:09:47;;;;;;;;;;;;;;;5.84;85.64;100242.56;4209699;28;20063;-68
2024/01/02 02:11:48;;;;;;;;;;;;;;;5.83;85.62;100240.84;4199998;28;20032;-69
2024/01/02 02:13:50;;;;;;;;;;;;;;;5.82;85.84;100247.25;4209577;28;20023;-69
2024/01/02 02:15:52;;;;;;;;;;;;;;;5.81;85.54;100240.19;4212393;28;20019;-68
2024/01/02 02:17:54;;;;;;;;;;;;;;;5.77;85.37;100243.19;4213139;28;19923;-69
2024/01/02 02:19:55;;;;;;;;;;;;;;;5.75;85.11;100239.81;4211902;28;20023;-69
2024/01/02 02:21:59;;;;;;;;;;;;;;;5.73;85.46;100244.47;4213341;28;19924;-69
2024/01/02 02:24:02;;;;;;;;;;;;;;;5.69;85.46;100235.09;4212256;28;20033;-69
2024/01/02 02:26:04;;;;;;;;;;;;;;;5.67;85.22;100237.06;4222764;28;20473;-69
2024/01/02 02:28:06;;;;;;;;;;;;;;;5.65;85.01;100241.75;4213893;28;20014;-68
2024/01/02 02:30:08;;;;;;;;;;;;;;;5.63;85.50;100233.03;4221689;28;20019;-68
2024/01/02 02:32:10;;;;;;;;;;;;;;;5.59;85.68;100227.16;4213744;28;20379;-68
2024/01/02 02:34:11;;;;;;;;;;;;;;;5.55;85.34;100233.81;4214164;28;20011;-68
2024/01/02 02:36:13;;;;;;;;;;;;;;;5.53;85.67;100233.16;4212618;28;20030;-69
2024/01/02 02:38:14;;;;;;;;;;;;;;;5.50;85.61;100229.94;4213616;28;19928;-68
2024/01/02 02:40:17;;;;;;;;;;;;;;;5.48;85.90;100226.56;4212587;28;19924;-69
2024/01/02 02:42:19;;;;;;;;;;;;;;;5.47;85.63;100216.84;4213350;28;20058;-68
2024/01/02 02:44:21;;;;;;;;;;;;;;;5.44;85.94;100214.47;4211857;28;20457;-68
2024/01/02 02:46:23;;;;;;;;;;;;;;;5.43;85.90;100215.50;4213578;28;20018;-68
2024/01/02 02:48:25;;;;;;;;;;;;;;;5.41;85.88;100216.47;4212165;28;20012;-68
2024/01/02 02:50:27;;;;;;;;;;;;;;;5.39;85.94;100199.75;4214299;28;20039;-69
2024/01/02 02:52:30;;;;;;;;;;;;;;;5.36;85.98;100202.72;4213360;28;20026;-69
2024/01/02 02:54:31;;;;;;;;;;;;;;;5.34;85.92;100204.72;4213119;28;20018;-69
2024/01/02 02:56:35;;;;;;;;;;;;;;;5.34;85.99;100203.88;4214266;28;20019;-69
2024/01/02 02:58:37;;;;;;;;;;;;;;;5.32;86.18;100203.19;4222026;27;19974;-69
2024/01/02 03:00:39;;;;;;;;;;;;;;;5.29;85.85;100196.31;4213970;28;20043;-69
2024/01/02 03:02:41;;;;;;;;;;;;;;;5.26;85.75;100193.94;4204033;28;20388;-69
2024/01/02 03:04:42;;;;;;;;;;;;;;;5.24;85.97;100204.81;4213952;28;19924;-69
2024/01/02 03:06:44;;;;;;;;;;;;;;;5.21;85.79;100196.25;4214978;28;20370;-68
2024/01/02 03:08:45;;;;;;;;;;;;;;;5.19;86.18;100192.91;4211542;28;20027;-69
2024/01/02 03:10:49;;;;;;;;;;;;;;;5.18;86.16;100196.56;4212344;28;20437;-69
2024/01/02 03:12:52;;;;;;;;;;;;;;;5.15;86.05;100183.50;4212035;28;20011;-69
2024/01/02 03:14:54;;;;;;;;;;;;;;;5.14;86.10;100185.34;4213309;28;20363;-69
2024/01/02 03:16:56;;;;;;;;;;;;;;;5.11;86.25;100184.78;4213918;28;20011;-69
2024/01/02 03:18:57;;;;;;;;;;;;;;;5.08;86.09;100179.75;4213459;28;20023;-69
2024/01/02 03:20:59;;;;;;;;;;;;;;;5.07;86.34;100172.72;4214413;28;19924;-69
2024/01/02 03:23:00;;;;;;;;;;;;;;;5.04;86.47;100169.34;4213748;28;19970;-68
2024/01/02 03:25:03;;;;;;;;;;;;;;;5.01;86.35;100166.97;4214020;28;19924;-69
2024/01/02 03:27:05;;;;;;;;;;;;;;;5.02;86.46;100166.00;4211971;28;20372;-69
2024/01/02 03:29:09;;;;;;;;;;;;;;;5.01;86.21;100160.78;4212941;28;20022;-69
2024/01/02 03:31:12;;;;;;;;;;;;;;;4.99;86.38;100160.94;4213149;28;20015;-69
2024/01/02 03:33:14;;;;;;;;;;;;;;;4.97;86.57;100154.91;4213034;28;20019;-69
2024/01/02 03:35:16;;;;;;;;;;;;;;;4.92;86.75;100142.97;4214116;28;20015;-68
2024/01/02 03:37:18;;;;;;;;;;;;;;;4.92;86.44;100146.53;4213851;28;20018;-69
2024/01/02 03:39:19;;;;;;;;;;;;;;;4.88;86.44;100140.63;4211798;28;20589;-69
2024/01/02 03:41:21;;;;;;;;;;;;;;;4.87;86.39;100141.63;4212743;28;19968;-68
2024/01/02 03:43:23;;;;;;;;;;;;;;;4.87;86.67;100143.44;4209520;28;20376;-68
2024/01/02 03:45:26;;;;;;;;;;;;;;;4.85;86.66;100138.25;4212826;28;20011;-69
2024/01/02 03:47:28;;;;;;;;;;;;;;;4.84;86.76;100138.41;4213508;28;20046;-69
2024/01/02 03:49:29;;;;;;;;;;;;;;;4.83;86.81;100134.06;4212699;28;20549;-69
2024/01/02 03:51:31;;;;;;;;;;;;;;;4.81;86.85;100130.69;4213814;28;19928;-69
2024/01/02 03:53:32;;;;;;;;;;;;;;;4.83;86.67;100120.69;4204052;28;19960;-69
2024/01/02 03:56:00;;;;;;;;;;;;;;;4.81;86.51;100111.97;4212745;28;20354;-69
2024/01/02 03:58:01;;;;;;;;;;;;;;;4.80;86.62;100104.94;4213384;28;20022;-69
2024/01/02 04:00:04;;;;;;;;;;;;;;;4.76;86.65;100103.56;4211957;28;19935;-69
2024/01/02 04:02:08;;;;;;;;;;;;;;;4.76;86.72;100106.25;4213015;28;20027;-68
2024/01/02 04:04:09;;;;;;;;;;;;;;;4.73;86.56;100102.03;4213555;28;20047;-68
2024/01/02 04:06:11;;;;;;;;;;;;;;;4.72;86.65;100095.00;4212633;28;19935;-68
2024/01/02 04:08:13;;;;;;;;;;;;;;;4.71;86.73;100092.50;4213186;28;20014;-69
2024/01/02 04:10:15;;;;;;;;;;;;;;;4.68;86.41;100090.97;4210866;28;20019;-68
2024/01/02 04:12:17;;;;;;;;;;;;;;;4.66;86.31;100088.44;4212108;28;19952;-68
2024/01/02 04:14:19;;;;;;;;;;;;;;;4.66;86.60;100079.59;4213569;28;20038;-69
2024/01/02 04:16:21;;;;;;;;;;;;;;;4.66;86.76;100082.25;4212930;28;20470;-68
2024/01/02 04:18:24;;;;;;;;;;;;;;;4.66;86.61;100077.72;4212604;28;20023;-69
2024/01/02 04:20:26;;;;;;;;;;;;;;;4.66;86.84;100066.22;4212137;28;19928;-69
2024/01/02 04:22:28;;;;;;;;;;;;;;;4.66;86.97;100074.22;4213411;28;20437;-69
2024/01/02 04:24:30;;;;;;;;;;;;;;;4.64;86.67;100066.38;4212815;28;20027;-69
2024/01/02 04:26:32;;;;;;;;;;;;;;;4.63;86.93;100064.66;4211586;28;20437;-69
2024/01/02 04:28:34;;;;;;;;;;;;;;;4.64;87.00;100068.19;4212594;28;20030;-69
2024/01/02 04:30:36;;;;;;;;;;;;;;;4.61;86.87;100061.31;4211294;28;20047;-69
2024/01/02 04:32:38;;;;;;;;;;;;;;;4.58;86.60;100064.31;4209677;28;20006;-69
2024/01/02 04:34:41;;;;;;;;;;;;;;;4.58;87.05;100050.94;4211529;28;20030;-69
2024/01/02 04:36:44;;;;;;;;;;;;;;;4.58;86.77;100050.09;4211908;28;20446;-69
2024/01/02 04:38:45;;;;;;;;;;;;;;;4.56;86.79;100052.06;4211717;28;20027;-69
2024/01/02 04:40:47;;;;;;;;;;;;;;;4.54;86.62;100046.88;4211514;28;19924;-68
2024/01/02 04:42:49;;;;;;;;;;;;;;;4.53;86.59;100053.25;4211685;28;20018;-69
2024/01/02 04:44:51;;;;;;;;;;;;;;;4.51;86.88;100049.84;4212255;28;20019;-68
2024/01/02 04:46:53;;;;;;;;;;;;;;;4.49;86.59;100042.00;4211611;28;20082;-68
2024/01/02 04:48:55;;;;;;;;;;;;;;;4.46;86.68;100046.81;4220344;28;20011;-68
2024/01/02 04:50:58;;;;;;;;;;;;;;;4.47;86.92;100048.50;4211583;28;20012;-68
2024/01/02 04:53:00;;;;;;;;;;;;;;;4.43;86.60;100039.94;4212307;28;20019;-68
2024/01/02 04:55:02;;;;;;;;;;;;;;;4.41;86.62;100033.91;4213147;28;20015;-68
2024/01/02 04:57:03;;;;;;;;;;;;;;;4.39;86.95;100035.03;4212310;28;19977;-69
2024/01/02 04:59:05;;;;;;;;;;;;;;;4.37;87.15;100029.03;4210411;28;20363;-68
2024/01/02 05:01:07;;;;;;;;;;;;;;;4.39;87.38;100027.03;4212120;28;19963;-69
2024/01/02 05:03:09;;;;;;;;;;;;;;;4.40;87.28;100021.53;4212879;28;20454;-69
2024/01/02 05:05:10;;;;;;;;;;;;;;;4.40;87.27;100024.19;4210665;28;19928;-68
2024/01/02 05:07:14;;;;;;;;;;;;;;;4.38;87.03;100015.50;4212829;28;20003;-69
2024/01/02 05:09:16;;;;;;;;;;;;;;;4.38;86.98;100012.00;4213121;28;20015;-69
2024/01/02 05:11:17;;;;;;;;;;;;;;;4.39;87.21;100000.28;4209945;28;20018;-69
2024/01/02 05:13:19;;;;;;;;;;;;;;;4.40;87.27;99993.97;4210834;28;19924;-69
2024/01/02 05:15:21;;;;;;;;;;;;;;;4.41;87.34;99992.97;4210002;28;20042;-69
2024/01/02 05:17:23;;;;;;;;;;;;;;;4.39;87.41;99985.09;4212929;28;20503;-69
2024/01/02 05:19:25;;;;;;;;;;;;;;;4.38;87.61;99983.41;4211305;28;20139;-69
2024/01/02 05:21:27;;;;;;;;;;;;;;;4.40;87.49;99983.25;4211939;28;20469;-69
2024/01/02 05:23:31;;;;;;;;;;;;;;;4.42;87.62;99986.59;4210326;28;20395;-69
2024/01/02 05:25:33;;;;;;;;;;;;;;;4.41;87.60;99985.78;4211934;28;20028;-70
2024/01/02 05:27:35;;;;;;;;;;;;;;;4.43;87.89;99978.44;4211760;28;20019;-69
2024/01/02 05:29:37;;;;;;;;;;;;;;;4.42;87.52;99976.78;4212329;28;20011;-69
2024/01/02 05:31:39;;;;;;;;;;;;;;;4.43;87.61;99966.91;4212393;28;20020;-69
2024/01/02 05:33:41;;;;;;;;;;;;;;;4.46;87.84;99971.94;4211242;28;20019;-69
2024/01/02 05:35:42;;;;;;;;;;;;;;;4.46;87.72;99969.28;4211544;28;20039;-69
2024/01/02 05:37:44;;;;;;;;;;;;;;;4.45;87.66;99970.25;4211379;28;20468;-69
2024/01/02 05:39:48;;;;;;;;;;;;;;;4.44;87.62;99968.59;4209066;28;19971;-70
2024/01/02 05:41:50;;;;;;;;;;;;;;;4.42;87.56;99966.09;4201277;28;20015;-70
2024/01/02 05:43:52;;;;;;;;;;;;;;;4.43;87.71;99964.22;4210164;28;20022;-70
2024/01/02 05:45:54;;;;;;;;;;;;;;;4.43;87.65;99966.91;4210849;28;20019;-69
2024/01/02 05:47:56;;;;;;;;;;;;;;;4.43;87.67;99957.03;4209637;28;20063;-70
2024/01/02 05:49:58;;;;;;;;;;;;;;;4.44;87.81;99957.91;4209816;28;20413;-71
2024/01/02 05:52:00;;;;;;;;;;;;;;;4.42;87.79;99950.03;4209621;28;21459;-70
2024/01/02 05:54:02;;;;;;;;;;;;;;;4.43;87.92;99946.34;4211507;28;20445;-70
2024/01/02 05:56:06;;;;;;;;;;;;;;;4.43;87.73;99941.00;4211737;28;20030;-69
2024/01/02 05:58:08;;;;;;;;;;;;;;;4.43;87.79;99937.50;4210507;28;20364;-70
2024/01/02 06:00:10;;;;;;;;;;;;;;;4.43;87.73;99940.16;4210119;28;20020;-69
2024/01/02 06:02:12;;;;;;;;;;;;;;;4.43;87.88;99930.31;4207791;28;20023;-69
2024/01/02 06:04:14;;;;;;;;;;;;;;;4.44;87.92;99925.81;4210039;28;20396;-69
2024/01/02 06:06:16;;;;;;;;;;;;;;;4.45;87.91;99916.78;4208544;28;20015;-69
2024/01/02 06:08:18;;;;;;;;;;;;;;;4.46;87.69;99913.13;4208145;28;20027;-70
2024/01/02 06:10:19;;;;;;;;;;;;;;;4.46;87.96;99913.94;4207193;28;20026;-69
2024/01/02 06:12:23;;;;;;;;;;;;;;;4.48;87.79;99914.66;4209958;28;19969;-69
2024/01/02 06:14:25;;;;;;;;;;;;;;;4.46;87.62;99907.78;4209457;28;20028;-68
2024/01/02 06:16:27;;;;;;;;;;;;;;;4.46;87.71;99900.56;4210781;28;20575;-69
2024/01/02 06:18:29;;;;;;;;;;;;;;;4.47;87.42;99896.91;4211646;28;20014;-69
2024/01/02 06:20:31;;;;;;;;;;;;;;;4.47;87.43;99896.91;4209694;28;20044;-69
2024/01/02 06:22:33;;;;;;;;;;;;;;;4.45;87.45;99892.72;4210641;28;20368;-69
2024/01/02 06:24:35;;;;;;;;;;;;;;;4.45;87.56;99895.38;4208852;28;20015;-69
2024/01/02 06:26:37;;;;;;;;;;;;;;;4.46;87.69;99883.72;4207091;28;20609;-68
2024/01/02 06:28:39;;;;;;;;;;;;;;;4.45;87.51;99884.69;4209187;28;20022;-69
2024/01/02 06:30:41;;;;;;;;;;;;;;;4.43;87.54;99890.19;4209899;28;20054;-68
2024/01/02 06:32:42;;;;;;;;;;;;;;;4.44;87.47;99878.50;4209047;28;20023;-68
2024/01/02 06:34:44;;;;;;;;;;;;;;;4.44;87.66;99878.50;4209807;28;20031;-68
2024/01/02 06:36:46;;;;;;;;;;;;;;;4.46;87.41;99881.03;4209260;28;20470;-68
2024/01/02 06:38:48;;;;;;;;;;;;;;;4.42;87.47;99880.53;4210056;28;20461;-68
2024/01/02 06:40:50;;;;;;;;;;;;;;;4.43;87.40;99874.16;4208217;28;20027;-68
2024/01/02 06:42:52;;;;;;;;;;;;;;;4.43;87.45;99873.31;4207421;28;19967;-69
2024/01/02 06:44:56;;;;;;;;;;;;;;;4.42;87.71;99877.84;4209570;28;20453;-68
2024/01/02 06:46:58;;;;;;;;;;;;;;;4.41;87.86;99869.97;4201656;28;20007;-69
2024/01/02 06:48:59;;;;;;;;;;;;;;;4.43;87.81;99863.47;4209481;28;20059;-68
2024/01/02 06:51:01;;;;;;;;;;;;;;;4.43;87.78;99868.81;4209946;28;20446;-68
2024/01/02 06:53:04;;;;;;;;;;;;;;;4.43;87.58;99865.31;4211533;28;20031;-69
2024/01/02 06:55:05;;;;;;;;;;;;;;;4.42;87.54;99863.63;4201367;28;20011;-68
2024/01/02 06:57:08;;;;;;;;;;;;;;;4.42;87.79;99860.94;4210113;28;20015;-69
2024/01/02 06:59:09;;;;;;;;;;;;;;;4.43;87.97;99873.31;4209478;28;20012;-69
2024/01/02 07:01:15;;;;;;;;;;;;;;;4.43;87.64;99863.47;4210461;28;20024;-69
2024/01/02 07:03:18;;;;;;;;;;;;;;;4.44;87.81;99870.50;4213294;28;19924;-69
2024/01/02 07:05:20;;;;;;;;;;;;;;;4.47;87.59;99869.34;4213652;28;20015;-69
2024/01/02 07:07:22;;;;;;;;;;;;;;;4.47;87.60;99867.50;4212959;28;20027;-69
2024/01/02 07:09:25;;;;;;;;;;;;;;;4.47;87.59;99859.47;4214206;28;20472;-69
2024/01/02 07:11:27;;;;;;;;;;;;;;;4.47;87.50;99861.34;4212451;28;20035;-69
2024/01/02 07:13:29;;;;;;;;;;;;;;;4.48;87.74;99854.97;4212609;28;20039;-69
2024/01/02 07:15:31;;;;;;;;;;;;;;;4.48;87.70;99849.63;4213611;28;20015;-69
2024/01/02 07:17:34;;;;;;;;;;;;;;;4.48;87.89;99841.59;4212684;28;20043;-69
2024/01/02 07:19:36;;;;;;;;;;;;;;;4.47;87.78;99838.09;4212837;28;20026;-69
2024/01/02 07:21:38;;;;;;;;;;;;;;;4.47;87.65;99840.75;4213689;28;20018;-69
2024/01/02 07:23:40;;;;;;;;;;;;;;;4.47;87.47;99839.94;4214244;28;19951;-69
2024/01/02 07:25:43;;;;;;;;;;;;;;;4.50;87.74;99834.28;4214204;28;20026;-69
2024/01/02 07:28:10;;;;;;;;;;;;;;;4.48;87.99;99828.22;4213713;28;20412;-69
2024/01/02 07:30:16;;;;;;;;;;;;;;;4.48;88.04;99823.72;4213940;28;19978;-69
2024/01/02 07:32:18;;;;;;;;;;;;;;;4.48;88.04;99817.53;4213241;28;20019;-69
2024/01/02 07:34:23;;;;;;;;;;;;;;;4.49;87.90;99811.19;4212215;28;20023;-69
2024/01/02 07:36:25;;;;;;;;;;;;;;;4.49;87.92;99813.88;4213323;28;19924;-69
2024/01/02 07:38:30;;;;;;;;;;;;;;;4.48;88.13;99810.38;4212755;28;20011;-68
2024/01/02 07:40:32;;;;;;;;;;;;;;;4.49;88.23;99811.19;4213631;28;20473;-69
2024/01/02 07:42:34;;;;;;;;;;;;;;;4.49;88.31;99798.66;4211140;28;20027;-69
2024/01/02 07:44:36;;;;;;;;;;;;;;;4.50;88.36;99803.00;4212283;28;20441;-69
2024/01/02 07:46:38;;;;;;;;;;;;;;;4.49;88.15;99793.31;4212863;28;20023;-69
2024/01/02 07:48:40;;;;;;;;;;;;;;;4.50;88.15;99797.66;4211254;28;20018;-69
2024/01/02 07:50:43;;;;;;;;;;;;;;;4.50;88.48;99780.78;4211514;28;20051;-69
2024/01/02 07:52:47;;;;;;;;;;;;;;;4.51;88.60;99787.78;4212281;28;20018;-69
2024/01/02 07:54:49;;;;;;;;;;;;;;;4.51;88.41;99783.31;4212155;28;20358;-69
2024/01/02 07:56:50;;;;;;;;;;;;;;;4.52;88.64;99786.81;4212208;28;20616;-69
2024/01/02 07:58:52;;;;;;;;;;;;;;;4.53;88.33;99784.97;4213287;28;19963;-69
2024/01/02 08:00:54;;;;;;;;;;;;;;;4.52;88.27;99773.44;4213098;28;20007;-69
2024/01/02 08:02:56;;;;;;;;;;;;;;;4.53;88.43;99774.25;4212158;28;20019;-69
2024/01/02 08:04:58;;;;;;;;;;;;;;;4.52;88.46;99773.44;4211633;28;19935;-69
2024/01/02 08:07:01;;;;;;;;;;;;;;;4.54;88.47;99765.25;4212937;28;20032;-69
2024/01/02 08:09:03;;;;;;;;;;;;;;;4.55;88.96;99765.09;4212754;28;20026;-69
2024/01/02 08:11:05;;;;;;;;;;;;;;;4.55;88.82;99754.41;4210184;28;20478;-69
2024/01/02 08:13:08;;;;;;;;;;;;;;;4.56;88.66;99756.09;4219868;28;19978;-69
2024/01/02 08:15:09;;;;;;;;;;;;;;;4.55;88.75;99751.72;4198884;28;20040;-69
2024/01/02 08:17:11;;;;;;;;;;;;;;;4.57;89.02;99749.72;4200510;28;20019;-69
2024/01/02 08:19:14;;;;;;;;;;;;;;;4.56;89.08;99748.06;4208295;28;20023;-69
2024/01/02 08:21:16;;;;;;;;;;;;;;;4.56;89.13;99748.06;4208794;28;20456;-69
2024/01/02 08:23:19;;;;;;;;;;;;;;;4.58;89.36;99748.72;4209833;28;20098;-69
2024/01/02 08:25:23;;;;;;;;;;;;;;;4.60;89.04;99733.34;4210113;28;19928;-69
2024/01/02 08:27:25;;;;;;;;;;;;;;;4.61;88.95;99731.53;4202421;28;20040;-69
2024/01/02 08:29:28;;;;;;;;;;;;;;;4.63;89.17;99726.84;4212269;28;19952;-69
2024/01/02 08:31:30;;;;;;;;;;;;;;;4.64;89.29;99725.81;4212373;28;20007;-69
2024/01/02 08:33:31;;;;;;;;;;;;;;;4.65;89.58;99722.97;4212650;28;20023;-68
2024/01/02 08:35:33;;;;;;;;;;;;;;;4.66;89.44;99723.84;4212472;28;20023;-69
2024/01/02 08:37:35;;;;;;;;;;;;;;;4.68;89.44;99727.19;4210771;28;20048;-69
2024/01/02 08:39:39;;;;;;;;;;;;;;;4.68;89.33;99725.31;4212063;28;19995;-69
2024/01/02 08:41:41;;;;;;;;;;;;;;;4.71;89.60;99718.81;4199415;28;20384;-69
2024/01/02 08:43:42;;;;;;;;;;;;;;;4.73;89.57;99722.16;4195034;28;20023;-69
2024/01/02 08:45:44;;;;;;;;;;;;;;;4.75;89.65;99719.31;4207155;28;19928;-69
2024/01/02 08:47:46;;;;;;;;;;;;;;;4.75;89.46;99709.47;4205502;28;20813;-68
2024/01/02 08:49:48;;;;;;;;;;;;;;;4.77;89.58;99712.00;4208316;28;20299;-69
2024/01/02 08:51:50;;;;;;;;;;;;;;;4.78;89.54;99708.31;4209149;28;20027;-68
2024/01/02 08:53:52;;;;;;;;;;;;;;;4.79;89.52;99702.78;4209548;28;20039;-68
2024/01/02 08:55:54;;;;;;;;;;;;;;;4.81;89.63;99702.63;4211213;28;19959;-69
2024/01/02 08:57:57;;;;;;;;;;;;;;;4.83;89.87;99695.28;4210780;28;19963;-68
2024/01/02 08:59:59;;;;;;;;;;;;;;;4.83;90.22;99692.59;4210477;28;20018;-69
2024/01/02 09:02:00;;;;;;;;;;;;;;;4.83;90.23;99685.41;4209563;28;20019;-68
2024/01/02 09:04:02;;;;;;;;;;;;;;;4.84;90.08;99691.59;4210936;28;19963;-69
2024/01/02 09:06:04;;;;;;;;;;;;;;;4.86;89.97;99689.59;4210916;28;19943;-68
2024/01/02 09:08:07;;;;;;;;;;;;;;;4.87;90.18;99678.75;4210448;28;20018;-68
2024/01/02 09:10:09;;;;;;;;;;;;;;;4.89;90.36;99678.56;4209502;28;19966;-68
2024/01/02 09:12:12;;;;;;;;;;;;;;;4.92;90.35;99672.03;4209597;28;20015;-68
2024/01/02 09:14:15;;;;;;;;;;;;;;;4.93;90.34;99677.22;4207676;28;20019;-69
2024/01/02 09:16:17;;;;;;;;;;;;;;;4.93;90.82;99674.53;4211132;28;20035;-68
2024/01/02 09:18:19;;;;;;;;;;;;;;;4.93;91.14;99674.53;4211690;28;20022;-69
2024/01/02 09:20:21;;;;;;;;;;;;;;;4.94;91.42;99662.03;4212339;28;20027;-68
2024/01/02 09:22:24;;;;;;;;;;;;;;;4.94;91.36;99664.69;4212221;28;20023;-69
2024/01/02 09:24:26;;;;;;;;;;;;;;;4.93;91.17;99663.00;4211863;28;20031;-69
2024/01/02 09:26:27;;;;;;;;;;;;;;;4.94;91.55;99660.16;4210776;28;20349;-69
2024/01/02 09:28:32;;;;;;;;;;;;;;;4.98;91.48;99655.31;4212236;28;20437;-69
2024/01/02 09:30:34;;;;;;;;;;;;;;;4.97;91.31;99648.28;4212081;28;20429;-69
2024/01/02 09:32:36;;;;;;;;;;;;;;;5.00;91.28;99646.13;4211125;28;19964;-69
2024/01/02 09:34:38;;;;;;;;;;;;;;;4.99;91.56;99635.59;4211822;28;20880;-68
2024/01/02 09:36:40;;;;;;;;;;;;;;;5.00;91.56;99645.25;4209905;28;20466;-68
2024/01/02 09:38:41;;;;;;;;;;;;;;;4.99;92.27;99639.09;4205136;28;20027;-68
2024/01/02 09:40:47;;;;;;;;;;;;;;;4.99;92.11;99638.25;4206936;28;20123;-68
2024/01/02 09:42:51;;;;;;;;;;;;;;;4.98;92.01;99641.94;4207290;28;20035;-68
2024/01/02 09:44:57;;;;;;;;;;;;;;;4.97;92.10;99638.44;4206141;28;20028;-69
2024/01/02 09:47:01;;;;;;;;;;;;;;;4.97;92.73;99630.41;4209075;28;19927;-68
2024/01/02 09:49:06;;;;;;;;;;;;;;;4.98;92.70;99623.19;4208097;28;20028;-68
2024/01/02 09:51:08;;;;;;;;;;;;;;;4.98;92.85;99617.84;4210173;28;20015;-68
2024/01/02 09:53:37;;;;;;;;;;;;;;;5.00;92.77;99613.16;4209331;28;20012;-68
2024/01/02 09:55:42;;;;;;;;;;;;;;;5.00;92.59;99610.47;4184349;28;20449;-67
2024/01/02 09:57:45;;;;;;;;;;;;;;;5.01;92.93;99612.16;4209218;28;20051;-68
2024/01/02 09:59:52;;;;;;;;;;;;;;;5.02;92.86;99609.31;4209125;28;20022;-68
2024/01/02 10:01:57;;;;;;;;;;;;;;;5.04;92.46;99595.75;4209798;28;19987;-68
2024/01/02 10:04:07;;;;;;;;;;;;;;;5.05;92.71;99587.56;4210457;28;19963;-68
2024/01/02 10:06:12;;;;;;;;;;;;;;;5.04;92.50;99580.53;4209196;28;20011;-68
2024/01/02 10:08:16;;;;;;;;;;;;;;;5.03;93.18;99572.69;4209303;28;19934;-69
2024/01/02 10:10:19;;;;;;;;;;;;;;;5.04;93.24;99583.22;4198765;28;20023;-69
2024/01/02 10:12:25;;;;;;;;;;;;;;;5.04;93.15;99563.66;4207453;28;19971;-69
2024/01/02 10:14:28;;;;;;;;;;;;;;;5.05;93.26;99570.69;4215907;28;20007;-69
2024/01/02 10:16:35;;;;;;;;;;;;;;;5.06;93.45;99558.94;4208069;28;20331;-69
2024/01/02 10:18:49;;;;;;;;;;;;;;;5.05;93.46;99560.81;4208004;28;20023;-69
2024/01/02 10:20:53;;;;;;;;;;;;;;;5.06;93.32;99564.31;4211443;28;20429;-69
2024/01/02 10:22:57;;;;;;;;;;;;;;;5.05;93.63;99555.47;4211581;28;19963;-69
2024/01/02 10:25:00;;;;;;;;;;;;;;;5.05;93.87;99558.13;4207508;28;20434;-69
2024/01/02 10:27:07;;;;;;;;;;;;;;;5.06;93.87;99561.63;4209819;28;20820;-70
2024/01/02 10:29:13;;;;;;;;;;;;;;;5.07;94.07;99557.13;4210668;28;19935;-69
2024/01/02 10:31:15;;;;;;;;;;;;;;;5.06;94.00;99545.56;4210356;28;20034;-69
2024/01/02 10:33:17;;;;;;;;;;;;;;;5.06;94.23;99548.25;4202094;28;20027;-69
2024/01/02 10:35:23;;;;;;;;;;;;;;;5.06;94.44;99532.19;4210983;28;20015;-69
2024/01/02 10:37:26;;;;;;;;;;;;;;;5.08;94.49;99526.66;4209619;28;19973;-69
2024/01/02 10:39:29;;;;;;;;;;;;;;;5.08;94.10;99526.66;4212155;28;20014;-69
2024/01/02 10:41:36;;;;;;;;;;;;;;;5.08;93.99;99518.63;4212918;28;20015;-69
2024/01/02 10:43:39;;;;;;;;;;;;;;;5.09;94.22;99498.91;4212489;28;20019;-68